createdAt,value
2018-06-23T10:23:51.337Z,5.20
2018-06-23T10:26:19.615Z,5.07
2018-06-23T10:28:47.851Z,5.27
2018-06-23T10:31:19.295Z,5.23
2018-06-23T10:33:51.025Z,4.63
2018-06-23T10:36:21.329Z,4.73
2018-06-23T10:38:49.792Z,4.30
2018-06-23T10:41:18.161Z,4.23
2018-06-23T10:43:47.625Z,4.33
2018-06-23T10:46:16.517Z,4.13
2018-06-23T10:48:44.766Z,4.10
2018-06-23T10:51:13.659Z,4.17
2018-06-23T10:53:41.854Z,4.93
2018-06-23T10:56:16.889Z,5.03
2018-06-23T10:58:48.875Z,5.43
2018-06-23T11:01:22.862Z,5.33
2018-06-23T11:03:56.381Z,4.93
2018-06-23T11:06:33.488Z,4.67
2018-06-23T11:09:02.284Z,4.43
2018-06-23T11:11:30.479Z,4.60
2018-06-23T11:13:58.664Z,4.47
2018-06-23T11:16:28.742Z,4.90
2018-06-23T11:19:02.958Z,4.80
2018-06-23T11:21:32.418Z,5.00
2018-06-23T11:24:01.794Z,4.97
2018-06-23T11:26:30.653Z,5.03
2018-06-23T11:28:59.126Z,4.53
2018-06-23T11:31:30.104Z,4.60
2018-06-23T11:33:58.342Z,4.87
2018-06-23T11:36:26.538Z,4.77
2018-06-23T11:38:54.733Z,5.40
2018-06-23T11:41:22.977Z,4.00
2018-06-23T11:43:51.160Z,4.40
2018-06-23T11:46:20.951Z,5.27
2018-06-23T11:48:49.162Z,4.67
2018-06-23T11:51:17.437Z,5.00
2018-06-23T11:53:45.613Z,4.27
2018-06-23T11:56:15.279Z,5.30
2018-06-23T11:58:47.169Z,5.00
2018-06-23T12:01:15.474Z,5.50
2018-06-23T12:03:43.742Z,5.17
2018-06-23T12:06:12.025Z,5.13
2018-06-23T12:08:41.394Z,5.20
2018-06-23T12:11:09.713Z,6.10
2018-06-23T12:13:41.992Z,5.00
2018-06-23T12:16:10.472Z,5.50
2018-06-23T12:18:44.853Z,4.80
2018-06-23T12:21:15.500Z,4.93
2018-06-23T12:23:43.813Z,4.50
2018-06-23T12:26:12.018Z,4.70
2018-06-23T12:28:40.337Z,5.00
2018-06-23T12:31:08.614Z,4.80
2018-06-23T12:33:36.854Z,5.00
2018-06-23T12:36:05.063Z,5.83
2018-06-23T12:38:33.565Z,5.10
2018-06-23T12:41:01.862Z,4.30
2018-06-23T12:43:30.278Z,5.07
2018-06-23T12:45:58.727Z,4.27
2018-06-23T12:48:27.214Z,5.03
2018-06-23T12:50:55.437Z,4.63
2018-06-23T12:53:23.725Z,5.27
2018-06-23T12:55:51.955Z,5.63
2018-06-23T12:58:20.181Z,4.87
2018-06-23T13:00:48.407Z,5.60
2018-06-23T13:03:16.617Z,5.20
2018-06-23T13:05:44.960Z,5.13
2018-06-23T13:08:13.161Z,5.10
2018-06-23T13:10:41.373Z,5.23
2018-06-23T13:13:09.608Z,4.60
2018-06-23T13:15:37.867Z,4.57
2018-06-23T13:18:06.976Z,4.87
2018-06-23T13:20:35.384Z,4.33
2018-06-23T13:23:03.762Z,4.50
2018-06-23T13:25:32.274Z,4.10
2018-06-23T13:28:00.549Z,4.67
2018-06-23T13:30:28.783Z,4.27
2018-06-23T13:32:57.082Z,4.27
2018-06-23T13:35:25.726Z,4.30
2018-06-23T13:37:53.946Z,4.30
2018-06-23T13:40:22.149Z,4.27
2018-06-23T13:42:50.473Z,3.87
2018-06-23T13:45:19.342Z,4.07
2018-06-23T13:47:47.540Z,3.37
2018-06-23T13:50:15.737Z,3.83
2018-06-23T13:52:43.988Z,3.50
2018-06-23T13:55:12.193Z,3.33
2018-06-23T13:57:40.415Z,3.17
2018-06-23T14:00:09.470Z,2.83
2018-06-23T14:02:37.501Z,3.23
2018-06-23T14:05:05.825Z,3.10
2018-06-23T14:07:33.789Z,3.00
2018-06-23T14:10:02.054Z,3.10
2018-06-23T14:12:30.333Z,2.67
2018-06-23T14:14:58.569Z,2.63
2018-06-23T14:17:26.758Z,2.97
2018-06-23T14:19:55.005Z,2.43
2018-06-23T14:22:23.306Z,3.23
2018-06-23T14:24:51.531Z,2.60
2018-06-23T14:27:19.753Z,3.00
2018-06-23T14:29:47.961Z,2.90
2018-06-23T14:32:16.272Z,3.17
2018-06-23T14:34:44.491Z,3.00
2018-06-23T14:37:12.754Z,3.30
2018-06-23T14:39:40.932Z,2.97
2018-06-23T14:42:09.121Z,3.10
2018-06-23T14:44:37.372Z,3.37
2018-06-23T14:47:05.605Z,3.00
2018-06-23T14:49:33.838Z,2.93
2018-06-23T14:52:02.102Z,2.77
2018-06-23T14:54:30.330Z,3.40
2018-06-23T14:56:58.582Z,2.83
2018-06-23T14:59:26.813Z,2.70
2018-06-23T15:01:54.985Z,2.80
2018-06-23T15:04:23.281Z,3.53
2018-06-23T15:06:51.547Z,3.00
2018-06-23T15:09:31.150Z,3.50
2018-06-23T15:12:10.790Z,3.63
2018-06-23T15:14:38.746Z,3.03
2018-06-23T15:19:41.489Z,3.10
2018-06-23T15:22:09.705Z,3.07
2018-06-23T15:24:37.922Z,2.73
2018-06-23T15:27:06.358Z,3.03
2018-06-23T15:29:34.710Z,2.97
2018-06-23T15:32:03.010Z,3.10
2018-06-23T15:34:31.260Z,3.13
2018-06-23T15:36:59.541Z,3.50
2018-06-23T15:39:27.789Z,3.20
2018-06-23T15:41:56.188Z,3.10
2018-06-23T15:44:24.486Z,3.70
2018-06-23T15:46:53.000Z,3.57
2018-06-23T15:49:21.197Z,3.67
2018-06-23T15:51:49.458Z,2.90
2018-06-23T15:54:18.213Z,3.97
2018-06-23T15:56:46.474Z,3.80
2018-06-23T15:59:15.566Z,3.07
2018-06-23T16:01:43.761Z,3.27
2018-06-23T16:04:11.993Z,3.70
2018-06-23T16:06:40.240Z,3.57
2018-06-23T16:09:10.377Z,3.57
2018-06-23T16:11:38.611Z,2.83
2018-06-23T16:14:06.942Z,3.30
2018-06-23T16:16:35.181Z,3.47
2018-06-23T16:19:03.381Z,3.93
2018-06-23T16:21:31.638Z,3.23
2018-06-23T16:23:59.872Z,3.23
2018-06-23T16:26:28.101Z,3.40
2018-06-23T16:28:56.272Z,2.90
2018-06-23T16:31:24.453Z,3.13
2018-06-23T16:33:52.729Z,3.10
2018-06-23T16:36:20.989Z,3.40
2018-06-23T16:38:49.224Z,4.23
2018-06-23T16:41:17.458Z,3.43
2018-06-23T16:43:46.028Z,3.50
2018-06-23T16:46:15.725Z,3.50
2018-06-23T16:48:44.033Z,3.30
2018-06-23T16:51:12.246Z,3.57
2018-06-23T16:53:40.489Z,3.80
2018-06-23T16:56:08.697Z,2.83
2018-06-23T16:58:36.940Z,3.40
2018-06-23T17:01:05.202Z,3.40
2018-06-23T17:03:33.460Z,3.10
2018-06-23T17:06:02.730Z,3.30
2018-06-23T17:08:30.972Z,3.20
2018-06-23T17:10:59.250Z,3.50
2018-06-23T17:13:27.463Z,3.50
2018-06-23T17:15:55.676Z,3.47
2018-06-23T17:18:23.984Z,3.43
2018-06-23T17:20:52.287Z,3.33
2018-06-23T17:23:20.550Z,2.90
2018-06-23T17:25:48.749Z,2.93
2018-06-23T17:28:16.951Z,3.23
2018-06-23T17:30:45.148Z,2.73
2018-06-23T17:33:13.341Z,3.07
2018-06-23T17:35:41.534Z,2.73
2018-06-23T17:38:09.735Z,3.77
2018-06-23T17:40:37.917Z,3.00
2018-06-23T17:43:09.113Z,2.30
2018-06-23T17:45:37.356Z,2.97
2018-06-23T17:48:05.601Z,2.20
2018-06-23T17:50:33.826Z,2.80
2018-06-23T17:53:02.081Z,1.97
2018-06-23T17:55:30.740Z,2.90
2018-06-23T17:57:58.991Z,2.57
2018-06-23T18:00:27.170Z,2.80
2018-06-23T18:02:55.434Z,3.33
2018-06-23T18:05:23.709Z,2.47
2018-06-23T18:07:51.929Z,2.33
2018-06-23T18:10:20.140Z,3.80
2018-06-23T18:12:48.365Z,2.60
2018-06-23T18:15:16.591Z,2.50
2018-06-23T18:17:44.803Z,2.37
2018-06-23T18:20:13.005Z,2.90
2018-06-23T18:22:41.261Z,2.33
2018-06-23T18:25:09.458Z,2.53
2018-06-23T18:27:37.652Z,2.90
2018-06-23T18:30:07.636Z,3.03
2018-06-23T18:32:35.902Z,2.40
2018-06-23T18:35:04.943Z,2.97
2018-06-23T18:37:35.758Z,2.47
2018-06-23T18:40:04.368Z,2.63
2018-06-23T18:42:32.613Z,2.70
2018-06-23T18:45:00.589Z,2.53
2018-06-23T18:47:28.787Z,3.03
2018-06-23T18:49:57.001Z,2.50
2018-06-23T18:52:25.263Z,2.47
2018-06-23T18:54:53.573Z,2.40
2018-06-23T18:57:21.889Z,2.50
2018-06-23T18:59:50.754Z,2.73
2018-06-23T19:02:18.761Z,2.63
2018-06-23T19:04:47.937Z,3.17
2018-06-23T19:07:16.136Z,3.10
2018-06-23T19:09:44.365Z,2.60
2018-06-23T19:14:47.126Z,2.90
2018-06-23T19:17:15.895Z,3.27
2018-06-23T19:19:45.173Z,3.87
2018-06-23T19:22:13.385Z,3.20
2018-06-23T19:24:41.634Z,2.90
2018-06-23T19:27:09.893Z,3.07
2018-06-23T19:29:38.137Z,3.33
2018-06-23T19:32:06.463Z,3.13
2018-06-23T19:34:34.841Z,2.97
2018-06-23T19:37:03.246Z,3.30
2018-06-23T19:39:31.480Z,3.37
2018-06-23T19:41:59.699Z,6.20
2018-06-23T19:44:32.627Z,5.27
2018-06-23T19:47:00.884Z,3.50
2018-06-23T19:49:29.133Z,2.80
2018-06-23T19:51:57.387Z,3.93
2018-06-23T19:54:25.696Z,3.50
2018-06-23T19:56:53.993Z,3.90
2018-06-23T19:59:22.496Z,4.33
2018-06-23T21:23:49.520Z,4.47
2018-06-23T21:26:17.839Z,4.50
2018-06-23T21:28:46.189Z,4.63
2018-06-23T21:31:14.548Z,5.00
2018-06-23T21:33:42.794Z,4.00
2018-06-23T21:36:11.052Z,4.53
2018-06-23T21:38:39.280Z,4.27
2018-06-23T21:41:07.494Z,4.50
2018-06-23T21:43:36.367Z,4.20
2018-06-23T21:46:04.661Z,4.67
2018-06-23T21:48:32.958Z,4.93
2018-06-23T21:51:02.275Z,5.67
2018-06-23T21:53:30.611Z,4.70
2018-06-23T21:55:58.928Z,5.10
2018-06-23T21:58:27.285Z,4.73
2018-06-23T22:00:55.510Z,4.57
2018-06-23T22:03:23.783Z,4.60
2018-06-23T22:05:52.005Z,4.90
2018-06-23T22:08:20.245Z,5.20
2018-06-23T22:10:49.150Z,4.80
2018-06-23T22:13:17.374Z,4.37
2018-06-23T22:15:45.593Z,4.57
2018-06-23T22:18:13.809Z,5.23
2018-06-23T22:20:42.646Z,4.70
2018-06-23T22:23:10.857Z,4.67
2018-06-23T22:25:39.149Z,4.70
2018-06-23T22:28:07.655Z,4.83
2018-06-23T22:30:35.847Z,5.77
2018-06-23T22:33:04.139Z,4.93
2018-06-23T22:35:32.353Z,4.30
2018-06-23T22:38:00.580Z,4.67
2018-06-23T22:40:28.853Z,4.70
2018-06-23T22:42:58.065Z,4.30
2018-06-23T22:45:26.256Z,4.77
2018-06-23T22:47:54.445Z,4.50
2018-06-23T22:50:22.617Z,4.47
2018-06-23T22:52:50.795Z,4.77
2018-06-23T22:55:18.962Z,4.67
2018-06-23T22:57:47.241Z,4.90
2018-06-23T23:00:15.517Z,4.43
